Latest Coastal Weather Observations for Brisbane Airport

IDQ60701

Issued at 6:41 pm EST Saturday 30 May 2015 (issued every 10 minutes, with the page automatically refreshed every 10 minutes)

About coastal observations | Map of coastal stations | Coastal observations for QLD | Marine services | Other Formats
Station Details ID: 040842 Name: BRISBANE AERO Lat: -27.39 Lon: 153.13 Height: 4.51 m
Data from the previous 72 hours. | See also: Recent months at Brisbane Airport
Date/Time
EST
Temp

°C
Wind Pressure Rain
since 9am
mm
Weather Cloud Vis
km
Sea
Height
m
Swell
Dir
 
Speed
knots
Gust
knots
hPa Trend Height
m
Period
s
Dir
30/06:30pm 19.0 N 7 8 1019.2 - 0.0 - Mostly clear 10 - - - -
30/06:00pm 19.4 N 6 7 1018.9 F 0.0 Haze Mostly cloudy 30 - - - -
30/05:30pm 19.5 N 6 7 1018.7 - 0.0 - Mostly clear 10 - - - -
30/05:00pm 20.0 NNE 7 8 1018.7 - 0.0 - Mostly clear 10 - - - -
30/04:30pm 21.5 NNE 7 9 1018.5 - 0.0 - Mostly clear 10 - - - -
30/04:00pm 22.8 NNE 7 9 1018.3 - 0.0 - Mostly clear 10 - - - -
30/03:30pm 23.6 NNE 8 10 1018.2 - 0.0 - Mostly clear 10 - - - -
30/03:00pm 24.3 NE 6 7 1018.3 F 0.0 Haze Mostly cloudy 30 - - - -
30/02:30pm 23.9 NNE 7 8 1018.3 - 0.0 - Mostly clear 10 - - - -
30/02:00pm 24.6 NNE 6 7 1018.5 - 0.0 - Mostly clear 10 - - - -
30/01:30pm 24.3 NNE 6 7 1018.8 - 0.0 - Mostly clear 10 - - - -
30/01:00pm 24.1 NNE 6 7 1019.3 - 0.0 - Mostly clear 10 - - - -
30/12:30pm 23.7 N 7 9 1019.6 - 0.0 - Mostly clear 10 - - - -
30/12:00pm 23.7 N 7 8 1020.1 F 0.0 Fine Partly cloudy 35 - - - -
30/11:30am 23.7 NNE 5 7 1020.7 - 0.0 - Mostly clear 10 - - - -
30/11:00am 23.0 N 5 7 1021.4 - 0.0 - Mostly clear 10 - - - -
30/10:30am 22.7 NW 3 6 1022.2 - 0.0 - Mostly clear 10 - - - -
30/10:00am 21.8 W 3 6 1022.6 - 0.0 - - 10 - - - -
30/09:30am 20.1 W 2 5 1022.8 - 0.0 - - 10 - - - -
30/09:00am 18.1 CALM 0 4 1022.9 R 0.2 Fine Mostly cloudy 35 - - - -
30/08:30am 17.2 S 4 5 1022.8 - 0.2 - - 10 - - - -
30/08:00am 16.7 SSW 5 6 1022.8 - 0.2 - - 10 - - - -
30/07:30am 15.9 SSW 6 7 1022.5 - 0.2 - Mostly clear 10 - - - -
30/07:00am 15.1 SSW 6 8 1022.4 - 0.2 - Mostly clear 10 - - - -
30/06:30am 14.9 SSW 4 5 1022.0 - 0.2 Shallow fog Mostly clear 10 - - - -
30/06:00am 15.2 SSW 5 7 1021.6 F 0.2 Fog patches Partly cloudy 9 - - - -
30/05:56am 15.0 SSW 5 6 1021.7 - 0.2 Fog patches Mostly clear 7 - - - -
30/05:39am 15.3 CALM 0 - 1021.4 - 0.2 Fog Partly cloudy 0.3 - - - -
30/05:30am 14.8 CALM 0 - 1021.3 - 0.2 Fog Partly cloudy 0.1 - - - -
30/05:00am 14.9 SSW 4 4 1021.1 - 0.0 Fog Partly cloudy 0.1 - - - -
30/04:48am 15.7 S 3 4 1021.2 - 0.0 Fog Mostly cloudy 0.1 - - - -
30/04:43am 15.9 S 4 5 1021.1 - 0.0 Fog patches Partly cloudy 0.3 - - - -
30/04:30am 16.5 S 5 6 1021.1 - 0.0 Fog patches Partly cloudy 2 - - - -
30/04:22am 16.0 SSW 5 6 1021.1 - 0.0 Fog Partly cloudy 3 - - - -
30/04:00am 14.8 WSW 2 6 1021.2 - 0.0 Shallow fog Mostly clear 10 - - - -
30/03:30am 14.6 CALM 0 - 1021.3 - 0.0 Shallow fog Mostly clear 10 - - - -
30/03:00am 15.6 CALM 0 - 1021.1 F 0.0 Shallow fog Mostly clear 40 - - - -
30/02:30am 16.0 CALM 0 - 1021.2 - 0.0 Shallow fog Partly cloudy 10 - - - -
30/02:00am 16.0 CALM 0 0 1021.3 - 0.0 Shallow fog Mostly clear 10 - - - -
30/01:30am 16.3 WSW 4 7 1021.8 - 0.0 Shallow fog Mostly clear 10 - - - -
30/01:00am 16.6 WSW 4 5 1022.1 - 0.0 Shallow fog Mostly clear 10 - - - -
30/12:30am 17.1 NW 4 4 1021.8 - 0.0 Shallow fog Mostly clear 10 - - - -
 
Date/Time
EST
Temp

°C
Wind Pressure Rain
since 9am
mm
Weather Cloud Vis
km
Sea
Height
m
Swell
Dir
 
Speed
knots
Gust
knots
hPa Trend Height
m
Period
s
Dir
29/11:40pm 17.2 N 4 6 1022.5 - 0.0 Shallow fog Partly cloudy 10 - - - -
29/11:30pm 17.5 NNW 5 7 1022.5 - 0.0 - - 10 - - - -
29/11:00pm 17.5 N 5 7 1022.6 - 0.0 - - 10 - - - -
29/10:30pm 17.7 N 6 7 1022.6 - 0.0 - - 10 - - - -
29/10:00pm 18.7 W 1 3 1022.8 - 0.0 - - 10 - - - -
29/09:30pm 19.6 NW 5 9 1022.7 - 0.0 - - 10 - - - -
29/09:00pm 19.2 NNW 5 12 1022.7 F 0.0 Fine Mostly cloudy 40 - - - -
29/08:30pm 19.0 N 4 6 1022.7 - 0.0 - - 10 - - - -
29/08:00pm 18.9 N 5 5 1022.9 - 0.0 - - 10 - - - -
29/07:30pm 19.6 NNW 6 11 1022.7 - 0.0 - - 10 - - - -
29/07:00pm 19.0 N 6 10 1022.5 - 0.0 - - 10 - - - -
29/06:30pm 19.1 N 6 8 1022.3 - 0.0 - Mostly clear 10 - - - -
29/06:00pm 19.2 N 6 8 1022.1 F 0.0 Fine Partly cloudy 40 - - - -
29/05:30pm 19.9 NNE 7 9 1021.7 - 0.0 - Mostly clear 10 - - - -
29/05:00pm 20.2 NNE 9 13 1021.4 - 0.0 - Mostly clear 10 - - - -
29/04:30pm 21.1 NNE 7 10 1021.6 - 0.0 - Mostly clear 10 - - - -
29/04:00pm 21.7 NNE 9 11 1021.6 - 0.0 - Mostly clear 10 - - - -
29/03:30pm 22.7 NNE 8 9 1021.6 - 0.0 - Mostly clear 10 - - - -
29/03:00pm 22.9 NE 7 9 1021.3 F 0.0 Fine Partly cloudy 40 - - - -
29/02:30pm 23.1 NE 8 9 1021.3 - 0.0 - Mostly clear 10 - - - -
29/02:00pm 23.1 NNE 7 8 1021.3 - 0.0 - Mostly clear 10 - - - -
29/01:30pm 23.5 NNE 8 10 1021.3 - 0.0 - Mostly clear 10 - - - -
29/01:00pm 23.3 N 6 8 1021.5 - 0.0 - Mostly clear 10 - - - -
29/12:30pm 23.0 N 8 9 1021.8 - 0.0 - Mostly clear 10 - - - -
29/12:00pm 23.4 NNW 3 6 1022.8 F 0.0 Fine Partly cloudy 40 - - - -
29/11:30am 23.1 N 4 8 1023.0 - 0.0 - Mostly clear 10 - - - -
29/11:00am 22.3 SW 4 6 1023.6 - 0.0 - Mostly clear 10 - - - -
29/10:30am 21.3 SW 5 8 1024.1 - 0.0 - Mostly clear 10 - - - -
29/10:00am 20.5 SW 5 7 1024.4 - 0.0 - Mostly clear 10 - - - -
29/09:30am 19.5 SSW 5 6 1024.4 - 0.0 - Mostly clear 10 - - - -
29/09:00am 18.4 SSW 5 7 1024.7 R 0.0 Haze Partly cloudy 25 - - - -
29/08:30am 17.2 SSW 6 7 1024.7 - 0.0 - - 10 - - - -
29/08:00am 15.6 S 4 5 1024.2 - 0.0 - - 10 - - - -
29/07:30am 15.0 W 4 6 1024.1 - 0.0 - - 10 - - - -
29/07:00am 13.7 W 5 6 1024.2 - 0.0 - - 10 - - - -
29/06:30am 13.2 SW 6 7 1023.8 - 0.0 - - 10 - - - -
29/06:00am 14.0 SSW 5 7 1023.3 F 0.0 Fine Partly cloudy 25 - - - -
29/05:30am 13.9 SSW 7 8 1023.6 - 0.0 Shallow fog Mostly clear 10 - - - -
29/05:00am 14.2 SSW 7 8 1023.5 - 0.0 - - 10 - - - -
29/04:30am 14.2 SSW 6 8 1023.0 - 0.0 - - 10 - - - -
29/04:00am 14.3 SSW 7 8 1022.7 - 0.0 Shallow fog Mostly clear 10 - - - -
29/03:30am 14.0 S 5 6 1022.9 - 0.0 Shallow fog Mostly clear 10 - - - -
29/03:00am 14.4 SSW 6 7 1022.9 S 0.0 Shallow fog Mostly clear 30 - - - -
29/02:30am 13.6 SSW 6 7 1023.3 - 0.0 Shallow fog Mostly clear 10 - - - -
29/02:00am 14.2 SSW 5 5 1023.0 - 0.0 Shallow fog - 10 - - - -
29/01:30am 13.9 SW 3 4 1023.5 - 0.0 Shallow fog Mostly clear 10 - - - -
29/01:00am 13.6 SW 5 6 1023.6 - 0.0 Shallow fog Mostly clear 10 - - - -
29/12:30am 13.8 SW 5 6 1023.7 - 0.0 Shallow fog Mostly clear 10 - - - -
29/12:00am 14.8 SW 1 6 1023.7 S 0.0 Shallow fog Mostly clear 30 - - - -
 
Date/Time
EST
Temp

°C
Wind Pressure Rain
since 9am
mm
Weather Cloud Vis
km
Sea
Height
m
Swell
Dir
 
Speed
knots
Gust
knots
hPa Trend Height
m
Period
s
Dir
28/11:30pm 14.8 SSW 5 6 1024.2 - 0.0 Shallow fog Mostly clear 10 - - - -
28/11:00pm 15.4 SW 3 4 1024.1 - 0.0 Shallow fog Mostly clear 10 - - - -
28/10:30pm 15.2 SW 4 5 1024.3 - 0.0 Shallow fog Mostly clear 10 - - - -
28/10:00pm 16.0 W 1 5 1024.1 - 0.0 Shallow fog Mostly clear 10 - - - -
28/09:30pm 16.7 NW 1 7 1024.2 - 0.0 Shallow fog Mostly clear 10 - - - -
28/09:00pm 16.4 NW 4 6 1024.1 R 0.0 Shallow fog Mostly clear 40 - - - -
28/08:30pm 16.6 NW 3 6 1024.1 - 0.0 Shallow fog Mostly clear 10 - - - -
28/08:00pm 17.0 WNW 1 4 1024.1 - 0.0 Shallow fog Mostly clear 10 - - - -
28/07:30pm 17.7 N 1 5 1023.6 - 0.0 Shallow fog Mostly clear 10 - - - -
28/07:12pm 17.7 N 2 5 1023.6 - 0.0 Shallow fog Mostly clear 10 - - - -
28/07:00pm 17.8 CALM 0 0 1023.5 - 0.0 - Mostly clear 10 - - - -
28/06:30pm 17.6 N 5 5 1023.3 - 0.0 - Mostly clear 10 - - - -
28/06:00pm 17.9 NE 5 7 1022.7 F 0.0 Fine Mostly clear 40 - - - -
28/05:30pm 18.4 NE 5 7 1022.5 - 0.0 - Mostly clear 10 - - - -
28/05:00pm 19.6 NE 7 9 1022.2 - 0.0 - Mostly clear 10 - - - -
28/04:30pm 20.4 NE 8 9 1022.0 - 0.0 - Mostly clear 10 - - - -
28/04:00pm 21.5 NE 7 8 1021.8 - 0.0 - Mostly clear 10 - - - -
28/03:30pm 22.1 NE 8 10 1021.8 - 0.0 - Mostly clear 10 - - - -
28/03:00pm 22.1 NE 8 10 1021.9 F 0.0 Haze Mostly clear 35 - - - -
28/02:30pm 22.5 NNE 10 12 1021.6 - 0.0 - Mostly clear 10 - - - -
28/02:00pm 22.6 NNE 9 11 1021.8 - 0.0 - Mostly clear 10 - - - -
28/01:30pm 22.4 NE 9 11 1022.1 - 0.0 - Mostly clear 10 - - - -
28/01:00pm 23.1 S 3 8 1022.5 - 0.0 - Mostly clear 10 - - - -
28/12:30pm 23.4 W 3 5 1023.2 - 0.0 - Mostly clear 10 - - - -
28/12:00pm 22.6 SW 6 9 1023.7 R 0.0 Fine Partly cloudy 35 - - - -
28/11:30am 21.6 SSW 5 8 1024.2 - 0.0 - Mostly clear 10 - - - -
28/10:00am 19.8 SSW 7 9 1025.0 - 0.0 - Mostly clear 10 - - - -
28/09:30am 19.0 SSW 8 9 1025.0 - 0.0 - Mostly clear 10 - - - -
28/09:00am 17.9 SSW 9 12 1025.0 R 0.0 Fine Mostly clear 30 - - - -
28/08:30am 16.8 SSW 10 13 1024.7 - 0.0 - Mostly clear 10 - - - -
28/08:00am 15.8 SSW 8 10 1024.6 - 0.0 - Partly cloudy 10 - - - -
28/07:30am 14.9 SSW 8 10 1024.3 - 0.0 - Mostly clear 10 - - - -
28/07:00am 14.1 SSW 7 9 1023.8 - 0.0 - Mostly clear 10 - - - -
28/06:30am 13.0 SSW 7 9 1023.3 - 0.0 - Mostly clear 10 - - - -
28/06:00am 13.2 SSW 7 9 1023.3 F 0.0 Fine Mostly clear 20 - - - -
28/05:30am 13.8 SSW 7 9 1023.0 - 0.0 - - 10 - - - -
28/05:00am 13.5 SSW 7 8 1022.8 - 0.0 - - 10 - - - -
28/04:30am 14.4 SSW 8 9 1022.8 - 0.0 - - 10 - - - -
28/04:00am 13.8 SSW 8 9 1022.8 - 0.0 - - 10 - - - -
28/03:30am 14.8 SSW 7 8 1022.9 - 0.0 - - 10 - - - -
28/03:00am 14.1 SSW 8 9 1022.7 R 0.0 Fine Clear 18 - - - -
28/02:30am 13.5 SSW 8 9 1022.7 - 0.0 - - 10 - - - -
28/02:00am 14.5 SSW 7 9 1022.7 - 0.0 - - 10 - - - -
28/01:30am 14.0 SSW 6 7 1022.9 - 0.0 - - 10 - - - -
28/01:00am 13.9 SSW 5 6 1023.1 - 0.0 - Mostly clear 10 - - - -
28/12:30am 14.6 SSW 6 7 1023.2 - 0.0 - Mostly clear 10 - - - -
28/12:00am 15.8 SSW 5 6 1023.2 R 0.0 Fine Partly cloudy 30 - - - -
 
Date/Time
EST
Temp

°C
Wind Pressure Rain
since 9am
mm
Weather Cloud Vis
km
Sea
Height
m
Swell
Dir
 
Speed
knots
Gust
knots
hPa Trend Height
m
Period
s
Dir
27/11:30pm 14.4 SSW 6 7 1023.3 - 0.0 - Mostly clear 10 - - - -
27/11:00pm 15.2 SW 4 5 1023.5 - 0.0 - Mostly clear 10 - - - -
27/10:30pm 15.1 SW 5 5 1023.6 - 0.0 - Mostly clear 10 - - - -
27/10:00pm 15.5 SSW 5 6 1023.5 - 0.0 - Mostly clear 10 - - - -
27/09:30pm 15.1 CALM 0 0 1023.5 - 0.0 - - 10 - - - -
27/09:00pm 15.9 CALM 0 0 1023.4 F 0.0 Fine Mostly clear 30 - - - -
27/08:30pm 16.2 CALM 0 0 1023.5 - 0.0 - Mostly clear 10 - - - -
27/08:00pm 17.4 SE 3 4 1023.5 - 0.0 - Mostly clear 10 - - - -
27/07:30pm 17.9 SE 3 4 1023.5 - 0.0 - Mostly clear 10 - - - -
27/07:00pm 18.2 ESE 4 5 1023.0 - 0.0 - Mostly clear 10 - - - -

Other Formats:

Comma delimited format used in spreadsheet applications
http://www.bom.gov.au/fwo/IDQ60701/IDQ60701.94578.axf

JavaScript Object Notation format (JSON) in row-major order
http://www.bom.gov.au/fwo/IDQ60701/IDQ60701.94578.json